createdAt,value
2023-08-18T00:01:28.494Z,22.22
2023-08-18T00:04:01.050Z,22.18
2023-08-18T00:06:33.541Z,22.14
2023-08-18T00:09:06.573Z,22.11
2023-08-18T00:11:41.639Z,22.09
2023-08-18T00:14:13.636Z,22.07
2023-08-18T00:16:48.349Z,22.08
2023-08-18T00:19:20.372Z,22.11
2023-08-18T00:21:52.634Z,22.16
2023-08-18T00:24:25.543Z,22.26
2023-08-18T00:26:57.964Z,22.33
2023-08-18T00:29:29.931Z,22.34
2023-08-18T00:32:03.113Z,22.32
2023-08-18T00:34:35.327Z,22.31
2023-08-18T00:37:10.074Z,22.28
2023-08-18T00:39:42.129Z,22.19
2023-08-18T00:42:14.378Z,21.89
2023-08-18T00:44:46.717Z,21.65
2023-08-18T00:47:19.471Z,21.51
2023-08-18T00:49:51.962Z,21.47
2023-08-18T00:52:25.932Z,21.39
2023-08-18T00:54:58.433Z,21.28
2023-08-18T00:57:31.351Z,21.21
2023-08-18T01:00:10.729Z,21.15
2023-08-18T01:02:44.065Z,21.09
2023-08-18T01:05:16.144Z,21.02
2023-08-18T01:07:48.770Z,20.96
2023-08-18T01:10:23.235Z,20.92
2023-08-18T01:13:02.632Z,20.90
2023-08-18T01:15:38.389Z,20.91
2023-08-18T01:18:14.994Z,20.96
2023-08-18T01:20:48.319Z,21.04
2023-08-18T01:23:20.524Z,21.10
2023-08-18T01:25:52.515Z,21.13
2023-08-18T01:28:24.880Z,21.12
2023-08-18T01:30:58.476Z,21.12
2023-08-18T01:33:43.346Z,21.14
2023-08-18T01:36:20.880Z,21.11
2023-08-18T01:38:56.885Z,21.07
2023-08-18T01:41:29.420Z,21.04
2023-08-18T01:44:03.061Z,20.98
2023-08-18T01:46:36.749Z,20.91
2023-08-18T01:49:10.387Z,20.85
2023-08-18T01:51:42.756Z,20.82
2023-08-18T01:54:16.071Z,20.77
2023-08-18T01:56:52.491Z,20.67
2023-08-18T01:59:24.525Z,20.58
2023-08-18T02:01:56.946Z,20.53
2023-08-18T02:04:29.574Z,20.50
2023-08-18T02:07:01.550Z,20.43
2023-08-18T02:09:33.798Z,20.31
2023-08-18T02:12:11.471Z,20.23
2023-08-18T02:14:43.703Z,20.17
2023-08-18T02:17:16.167Z,20.15
2023-08-18T02:19:48.450Z,20.12
2023-08-18T02:22:23.494Z,20.08
2023-08-18T02:24:56.512Z,20.05
2023-08-18T02:27:28.679Z,20.03
2023-08-18T02:30:01.181Z,19.98
2023-08-18T02:32:33.150Z,19.92
2023-08-18T02:35:05.679Z,19.82
2023-08-18T02:37:37.800Z,19.70
2023-08-18T02:40:16.380Z,19.63
2023-08-18T02:42:48.327Z,19.56
2023-08-18T02:45:20.525Z,19.49
2023-08-18T02:47:52.519Z,19.47
2023-08-18T02:50:25.370Z,19.48
2023-08-18T02:53:01.823Z,19.48
2023-08-18T02:55:34.324Z,19.44
2023-08-18T02:58:06.494Z,19.42
2023-08-18T03:00:40.562Z,19.41
2023-08-18T03:03:12.993Z,19.39
2023-08-18T03:05:45.796Z,19.34
2023-08-18T03:08:17.982Z,19.29
2023-08-18T03:10:57.935Z,19.27
2023-08-18T03:13:30.850Z,19.24
2023-08-18T03:16:04.479Z,19.22
2023-08-18T03:18:36.880Z,19.21
2023-08-18T03:21:12.126Z,19.21
2023-08-18T03:23:44.128Z,19.20
2023-08-18T03:26:16.503Z,19.21
2023-08-18T03:28:50.014Z,19.23
2023-08-18T03:31:23.984Z,19.26
2023-08-18T03:33:56.025Z,19.29
2023-08-18T03:36:29.038Z,19.34
2023-08-18T03:39:00.944Z,19.38
2023-08-18T03:41:33.669Z,19.38
2023-08-18T03:44:05.908Z,19.42
2023-08-18T03:46:38.801Z,19.47
2023-08-18T03:49:13.947Z,19.55
2023-08-18T03:51:48.689Z,19.57
2023-08-18T03:54:20.805Z,19.60
2023-08-18T03:56:54.541Z,19.61
2023-08-18T03:59:26.812Z,19.61
2023-08-18T04:01:59.198Z,19.60
2023-08-18T04:04:31.506Z,19.59
2023-08-18T04:07:03.926Z,19.60
2023-08-18T04:09:35.848Z,19.63
2023-08-18T04:12:11.009Z,19.72
2023-08-18T04:14:42.970Z,19.75
2023-08-18T04:17:15.263Z,19.78
2023-08-18T04:19:47.348Z,19.79
2023-08-18T04:22:19.380Z,19.79
2023-08-18T04:24:52.034Z,19.81
2023-08-18T04:27:24.255Z,19.90
2023-08-18T04:29:56.468Z,20.01
2023-08-18T04:32:29.228Z,20.12
2023-08-18T04:35:02.807Z,20.39
2023-08-18T04:37:35.200Z,20.82
2023-08-18T04:40:14.186Z,21.33
2023-08-18T04:42:46.639Z,21.85
2023-08-18T04:45:19.434Z,22.41
2023-08-18T04:47:51.665Z,22.76
2023-08-18T04:50:23.677Z,23.05
2023-08-18T04:52:55.852Z,23.51
2023-08-18T04:55:28.140Z,23.88
2023-08-18T04:58:00.211Z,24.27
2023-08-18T05:00:32.322Z,24.79
2023-08-18T05:03:05.221Z,25.30
2023-08-18T05:05:41.067Z,25.83
2023-08-18T05:08:13.833Z,26.38
2023-08-18T05:10:46.674Z,26.86
2023-08-18T05:13:19.274Z,27.33
2023-08-18T05:15:51.231Z,27.79
2023-08-18T05:18:23.644Z,28.16
2023-08-18T05:20:55.641Z,28.37
2023-08-18T05:23:28.624Z,28.19
2023-08-18T05:26:01.596Z,27.98
2023-08-18T05:28:34.838Z,28.22
2023-08-18T05:31:11.915Z,28.49
2023-08-18T05:33:42.811Z,28.43
2023-08-18T05:36:14.739Z,28.28
2023-08-18T05:38:46.898Z,28.07
2023-08-18T05:41:19.689Z,27.74
2023-08-18T05:43:52.463Z,27.27
2023-08-18T05:46:24.463Z,26.85
2023-08-18T05:48:56.725Z,26.53
2023-08-18T05:51:28.814Z,26.24
2023-08-18T05:54:00.812Z,26.03
2023-08-18T05:56:32.961Z,25.88
2023-08-18T05:59:05.847Z,25.70
2023-08-18T06:01:37.907Z,25.57
2023-08-18T06:04:12.970Z,25.48
2023-08-18T06:06:45.162Z,25.37
2023-08-18T06:09:18.091Z,25.24
2023-08-18T06:11:54.935Z,25.04
2023-08-18T06:14:27.340Z,24.89
2023-08-18T06:16:59.347Z,24.74
2023-08-18T06:19:31.389Z,24.58
2023-08-18T06:22:04.252Z,24.49
2023-08-18T06:24:36.733Z,24.39
2023-08-18T06:27:11.164Z,24.30
2023-08-18T06:29:43.184Z,24.24
2023-08-18T06:32:15.196Z,24.22
2023-08-18T06:34:47.310Z,24.25
2023-08-18T06:37:19.275Z,24.27
2023-08-18T06:39:51.541Z,24.25
2023-08-18T06:42:23.521Z,24.28
2023-08-18T06:44:56.070Z,24.35
2023-08-18T06:47:28.231Z,24.46
2023-08-18T06:50:01.210Z,24.64
2023-08-18T06:52:33.208Z,24.90
2023-08-18T06:55:06.132Z,25.18
2023-08-18T06:57:46.763Z,25.41
2023-08-18T07:00:22.114Z,25.56
2023-08-18T07:02:55.461Z,25.61
2023-08-18T07:05:28.100Z,25.59
2023-08-18T07:08:00.074Z,25.57
2023-08-18T07:10:32.138Z,25.54
2023-08-18T07:13:04.440Z,25.58
2023-08-18T07:15:36.467Z,25.69
2023-08-18T07:18:11.451Z,25.90
2023-08-18T07:20:44.921Z,26.05
2023-08-18T07:23:17.482Z,26.14
2023-08-18T07:25:51.840Z,26.26
2023-08-18T07:28:23.848Z,26.42
2023-08-18T07:30:55.986Z,26.52
2023-08-18T07:33:28.017Z,26.53
2023-08-18T07:36:00.178Z,26.52
2023-08-18T07:38:34.977Z,26.39
2023-08-18T07:41:10.725Z,26.23
2023-08-18T07:43:42.811Z,26.13
2023-08-18T07:46:14.966Z,26.10
2023-08-18T07:48:47.169Z,26.15
2023-08-18T07:51:19.436Z,26.27
2023-08-18T07:53:52.403Z,26.50
2023-08-18T07:56:24.661Z,26.80
2023-08-18T07:58:57.360Z,27.00
2023-08-18T08:01:30.044Z,27.12
2023-08-18T08:04:02.848Z,27.13
2023-08-18T08:06:35.451Z,27.12
2023-08-18T08:09:08.433Z,27.18
2023-08-18T08:11:40.550Z,27.19
2023-08-18T08:14:12.602Z,27.19
2023-08-18T08:16:45.119Z,27.20
2023-08-18T08:19:19.214Z,27.16
2023-08-18T08:21:53.992Z,27.16
2023-08-18T08:24:26.018Z,27.21
2023-08-18T08:26:58.741Z,27.27
2023-08-18T08:29:30.976Z,27.31
2023-08-18T08:32:02.901Z,27.33
2023-08-18T08:34:34.869Z,27.36
2023-08-18T08:37:07.038Z,27.38
2023-08-18T08:39:40.531Z,27.49
2023-08-18T08:42:12.835Z,27.58
2023-08-18T08:44:45.075Z,27.68
2023-08-18T08:47:19.142Z,27.89
2023-08-18T08:50:00.047Z,28.04
2023-08-18T08:52:38.867Z,28.19
2023-08-18T08:55:22.013Z,28.36
2023-08-18T08:57:54.061Z,28.56
2023-08-18T09:00:28.110Z,28.74
2023-08-18T09:03:03.850Z,28.99
2023-08-18T09:05:36.620Z,29.17
2023-08-18T09:08:11.322Z,29.45
2023-08-18T09:10:44.584Z,29.84
2023-08-18T09:13:17.212Z,30.24
2023-08-18T09:15:49.606Z,30.52
2023-08-18T09:18:22.070Z,30.77
2023-08-18T09:20:58.466Z,30.95
2023-08-18T09:23:30.753Z,31.27
2023-08-18T09:26:03.502Z,31.59
2023-08-18T09:28:35.587Z,31.72
2023-08-18T09:31:08.465Z,31.80
2023-08-18T09:33:41.140Z,31.86
2023-08-18T09:36:16.655Z,32.04
2023-08-18T09:38:49.412Z,32.32
2023-08-18T09:41:22.775Z,32.53
2023-08-18T09:43:54.827Z,32.77
2023-08-18T09:46:31.052Z,32.93
2023-08-18T09:49:05.153Z,33.02
2023-08-18T09:51:38.364Z,33.18
2023-08-18T09:54:14.652Z,33.31
2023-08-18T09:56:52.754Z,33.44
2023-08-18T09:59:30.369Z,33.65
2023-08-18T10:02:04.987Z,33.85
2023-08-18T10:04:41.698Z,33.90
2023-08-18T10:07:15.211Z,34.07
2023-08-18T10:09:48.339Z,34.32
2023-08-18T10:12:20.571Z,34.46
2023-08-18T10:14:54.241Z,34.39
2023-08-18T10:17:27.035Z,34.34
2023-08-18T10:20:01.612Z,34.39
2023-08-18T10:22:36.822Z,34.58
2023-08-18T10:25:27.162Z,34.58
2023-08-18T10:28:01.173Z,34.59
2023-08-18T10:30:33.692Z,34.63
2023-08-18T10:33:14.124Z,34.57
2023-08-18T10:35:49.661Z,34.58
2023-08-18T10:38:22.455Z,34.66
2023-08-18T10:40:55.604Z,34.63
2023-08-18T10:43:31.093Z,34.69
2023-08-18T10:46:04.355Z,34.78
2023-08-18T10:48:36.701Z,34.69
2023-08-18T10:51:10.178Z,34.76
2023-08-18T10:53:43.822Z,34.78
2023-08-18T10:56:16.145Z,34.86
2023-08-18T10:58:48.574Z,35.10
2023-08-18T11:01:23.969Z,35.02
2023-08-18T11:03:56.421Z,35.02
2023-08-18T11:06:28.942Z,35.14
2023-08-18T11:09:01.367Z,35.14
2023-08-18T11:11:33.800Z,34.98
2023-08-18T11:14:07.262Z,34.84
2023-08-18T11:16:40.942Z,34.63
2023-08-18T11:19:14.055Z,34.35
2023-08-18T11:21:49.168Z,34.18
2023-08-18T11:24:21.596Z,34.22
2023-08-18T11:26:54.553Z,34.08
2023-08-18T11:29:30.214Z,33.84
2023-08-18T11:32:02.368Z,33.85
2023-08-18T11:34:35.147Z,34.01
2023-08-18T11:37:11.835Z,34.13
2023-08-18T11:39:44.187Z,34.36
2023-08-18T11:42:16.372Z,34.57
2023-08-18T11:44:50.826Z,34.67
2023-08-18T11:47:24.054Z,34.75
2023-08-18T11:49:57.801Z,34.75
2023-08-18T11:52:40.358Z,34.66
2023-08-18T11:55:16.492Z,34.73
2023-08-18T11:57:48.617Z,34.84
2023-08-18T12:00:22.056Z,34.75
2023-08-18T12:02:54.064Z,34.63
2023-08-18T12:05:28.309Z,34.77
2023-08-18T12:08:02.410Z,34.84
2023-08-18T12:10:34.678Z,34.73
2023-08-18T12:13:06.959Z,34.67
2023-08-18T12:15:41.473Z,34.62
2023-08-18T12:18:13.977Z,34.66
2023-08-18T12:20:46.175Z,34.80
2023-08-18T12:23:18.154Z,34.87
2023-08-18T12:25:50.308Z,34.95
2023-08-18T12:28:22.265Z,34.97
2023-08-18T12:30:54.197Z,34.98
2023-08-18T12:33:26.648Z,35.01
2023-08-18T12:35:58.612Z,34.95
2023-08-18T12:38:30.542Z,34.91
2023-08-18T12:41:04.137Z,34.93
2023-08-18T12:43:38.050Z,34.98
2023-08-18T12:46:12.484Z,34.97
2023-08-18T12:48:44.547Z,34.93
2023-08-18T12:51:19.371Z,34.86
2023-08-18T12:53:52.540Z,34.92
2023-08-18T12:56:24.602Z,34.91
2023-08-18T12:58:56.745Z,34.87
2023-08-18T13:01:28.973Z,34.89
2023-08-18T13:04:00.990Z,34.75
2023-08-18T13:06:33.390Z,34.60
2023-08-18T13:09:05.611Z,34.51
2023-08-18T13:11:37.716Z,34.46
2023-08-18T13:14:10.910Z,34.42
2023-08-18T13:16:46.363Z,34.39
2023-08-18T13:19:18.973Z,34.32
2023-08-18T13:24:29.889Z,34.14
2023-08-18T13:27:02.190Z,34.04
2023-08-18T13:29:34.566Z,33.82
2023-08-18T13:32:07.040Z,33.73
2023-08-18T13:34:40.316Z,33.73
2023-08-18T13:37:12.583Z,33.62
2023-08-18T13:39:45.043Z,33.44
2023-08-18T13:42:18.621Z,33.33
2023-08-18T13:44:50.986Z,33.20
2023-08-18T13:47:23.221Z,33.11
2023-08-18T13:49:55.264Z,33.10
2023-08-18T13:52:27.296Z,33.10
2023-08-18T13:54:59.299Z,33.04
2023-08-18T13:57:31.673Z,32.87
2023-08-18T14:00:03.730Z,32.68
2023-08-18T14:02:43.920Z,32.49
2023-08-18T14:05:17.704Z,32.35
2023-08-18T14:07:50.091Z,32.24
2023-08-18T14:10:22.297Z,32.14
2023-08-18T14:12:54.944Z,31.97
2023-08-18T14:15:27.184Z,31.52
2023-08-18T14:17:59.508Z,30.95
2023-08-18T14:20:31.661Z,30.31
2023-08-18T14:23:03.912Z,29.68
2023-08-18T14:25:36.269Z,29.20
2023-08-18T14:28:09.791Z,28.77
2023-08-18T14:30:41.691Z,28.43
2023-08-18T14:33:14.502Z,28.15
2023-08-18T14:35:46.710Z,27.93
2023-08-18T14:38:18.856Z,27.62
2023-08-18T14:40:51.025Z,27.35
2023-08-18T14:43:23.363Z,27.18
2023-08-18T14:45:55.359Z,27.08
2023-08-18T14:48:30.450Z,26.89
2023-08-18T14:51:05.763Z,26.74
2023-08-18T14:53:38.413Z,26.69
2023-08-18T14:56:12.704Z,26.57
2023-08-18T14:58:45.338Z,26.44
2023-08-18T15:01:17.386Z,26.36
2023-08-18T15:03:49.909Z,26.27
2023-08-18T15:06:22.329Z,26.25
2023-08-18T15:08:54.512Z,26.21
2023-08-18T15:11:26.571Z,26.14
2023-08-18T15:13:59.072Z,26.01
2023-08-18T15:16:31.434Z,25.91
2023-08-18T15:19:04.131Z,25.78
2023-08-18T15:21:36.056Z,25.71
2023-08-18T15:24:12.141Z,25.64
2023-08-18T15:26:44.521Z,25.54
2023-08-18T15:29:19.216Z,25.42
2023-08-18T15:31:54.681Z,25.32
2023-08-18T15:34:26.758Z,25.24
2023-08-18T15:37:00.574Z,25.13
2023-08-18T15:39:32.923Z,25.01
2023-08-18T15:42:05.549Z,24.93
2023-08-18T15:44:37.806Z,24.86
2023-08-18T15:47:10.655Z,24.77
2023-08-18T15:49:43.004Z,24.65
2023-08-18T15:52:14.966Z,24.57
2023-08-18T15:54:47.228Z,24.52
2023-08-18T15:57:19.331Z,24.49
2023-08-18T15:59:51.454Z,24.47
2023-08-18T16:02:23.426Z,24.42
2023-08-18T16:04:56.129Z,24.38
2023-08-18T16:07:28.586Z,24.35
2023-08-18T16:10:01.194Z,24.27
2023-08-18T16:12:33.289Z,24.21
2023-08-18T16:17:41.210Z,24.17
2023-08-18T16:20:15.718Z,24.14
2023-08-18T16:22:47.633Z,24.07
2023-08-18T16:25:20.468Z,24.03
2023-08-18T16:27:53.660Z,24.01
2023-08-18T16:30:26.065Z,23.99
2023-08-18T16:32:58.346Z,23.96
2023-08-18T16:35:31.988Z,23.94
2023-08-18T16:38:06.329Z,23.89
2023-08-18T16:40:39.018Z,23.87
2023-08-18T16:43:13.325Z,23.86
2023-08-18T16:45:45.701Z,23.85
2023-08-18T16:48:17.717Z,23.82
2023-08-18T16:50:49.913Z,23.79
2023-08-18T16:53:22.019Z,23.76
2023-08-18T16:55:54.784Z,23.71
2023-08-18T16:58:26.864Z,23.65
2023-08-18T17:00:59.194Z,23.62
2023-08-18T17:03:31.316Z,23.61
2023-08-18T17:06:03.359Z,23.59
2023-08-18T17:08:35.308Z,23.56
2023-08-18T17:11:08.665Z,23.53
2023-08-18T17:13:40.650Z,23.55
2023-08-18T17:16:12.916Z,23.58
2023-08-18T17:18:45.116Z,23.58
2023-08-18T17:21:22.403Z,23.52
2023-08-18T17:23:54.758Z,23.41
2023-08-18T17:26:26.918Z,23.33
2023-08-18T17:28:58.882Z,23.28
2023-08-18T17:31:31.050Z,23.24
2023-08-18T17:34:03.320Z,23.19
2023-08-18T17:36:35.727Z,23.15
2023-08-18T17:39:08.720Z,23.11
2023-08-18T17:41:40.804Z,23.10
2023-08-18T17:44:12.725Z,23.08
2023-08-18T17:46:44.926Z,23.08
2023-08-18T17:49:18.959Z,23.09
2023-08-18T17:51:52.309Z,23.08
2023-08-18T17:54:24.659Z,23.07
2023-08-18T17:56:56.671Z,23.06
2023-08-18T17:59:28.627Z,23.04
2023-08-18T18:02:00.721Z,23.02
2023-08-18T18:04:32.745Z,23.00
2023-08-18T18:07:06.539Z,22.94
2023-08-18T18:09:40.468Z,22.91
2023-08-18T18:12:16.408Z,22.92
2023-08-18T18:14:49.694Z,22.91
2023-08-18T18:17:21.967Z,22.91
2023-08-18T18:19:54.046Z,22.88
2023-08-18T18:22:26.355Z,22.83
2023-08-18T18:24:58.454Z,22.76
2023-08-18T18:27:30.679Z,22.68
2023-08-18T18:30:03.449Z,22.63
2023-08-18T18:32:35.591Z,22.59
2023-08-18T18:35:10.490Z,22.53
2023-08-18T18:37:42.702Z,22.51
2023-08-18T18:40:20.584Z,22.52
2023-08-18T18:42:53.125Z,22.49
2023-08-18T18:45:25.201Z,22.51
2023-08-18T18:47:57.276Z,22.51
2023-08-18T18:50:29.775Z,22.48
2023-08-18T18:53:02.073Z,22.45
2023-08-18T18:55:34.333Z,22.39
2023-08-18T18:58:07.665Z,22.31
2023-08-18T19:00:41.210Z,22.23
2023-08-18T19:03:13.588Z,22.17
2023-08-18T19:05:45.648Z,22.14
2023-08-18T19:08:18.326Z,22.11
2023-08-18T19:10:50.430Z,22.13
2023-08-18T19:13:22.599Z,22.10
2023-08-18T19:15:54.787Z,22.04
2023-08-18T19:18:28.326Z,22.01
2023-08-18T19:21:00.597Z,22.02
2023-08-18T19:23:37.965Z,22.03
2023-08-18T19:26:10.959Z,22.07
2023-08-18T19:28:43.330Z,22.04
2023-08-18T19:31:15.369Z,21.93
2023-08-18T19:33:47.452Z,21.82
2023-08-18T19:36:20.739Z,21.76
2023-08-18T19:38:53.851Z,21.74
2023-08-18T19:41:26.015Z,21.73
2023-08-18T19:43:58.351Z,21.73
2023-08-18T19:46:30.350Z,21.72
2023-08-18T19:49:02.694Z,21.67
2023-08-18T19:51:34.758Z,21.63
2023-08-18T19:54:10.152Z,21.62
2023-08-18T19:56:42.812Z,21.68
2023-08-18T19:59:14.964Z,21.76
2023-08-18T20:01:48.309Z,21.78
2023-08-18T20:04:20.654Z,21.77
2023-08-18T20:06:52.715Z,21.72
2023-08-18T20:09:25.525Z,21.71
2023-08-18T20:11:57.496Z,21.71
2023-08-18T20:14:30.930Z,21.72
2023-08-18T20:17:04.370Z,21.80
2023-08-18T20:19:36.600Z,21.89
2023-08-18T20:22:10.048Z,21.97
2023-08-18T20:24:42.323Z,21.98
2023-08-18T20:27:14.258Z,21.92
2023-08-18T20:29:46.555Z,21.82
2023-08-18T20:32:18.522Z,21.77
2023-08-18T20:34:50.634Z,21.73
2023-08-18T20:37:22.552Z,21.71
2023-08-18T20:39:54.955Z,21.67
2023-08-18T20:42:27.743Z,21.62
2023-08-18T20:45:00.001Z,21.57
2023-08-18T20:47:32.252Z,21.56
2023-08-18T20:50:05.496Z,21.58
2023-08-18T20:52:37.617Z,21.64
2023-08-18T20:55:18.137Z,21.67
2023-08-18T20:57:50.048Z,21.71
2023-08-18T21:00:24.775Z,21.72
2023-08-18T21:02:59.177Z,21.74
2023-08-18T21:05:31.858Z,21.77
2023-08-18T21:08:03.805Z,21.78
2023-08-18T21:10:35.874Z,21.75
2023-08-18T21:13:10.606Z,21.74
2023-08-18T21:15:42.872Z,21.71
2023-08-18T21:18:15.330Z,21.66
2023-08-18T21:20:47.860Z,21.65
2023-08-18T21:23:19.884Z,21.70
2023-08-18T21:25:51.906Z,21.70
2023-08-18T21:28:23.952Z,21.64
2023-08-18T21:31:00.970Z,21.57
2023-08-18T21:33:33.411Z,21.59
2023-08-18T21:36:05.817Z,21.59
2023-08-18T21:38:37.790Z,21.58
2023-08-18T21:41:14.931Z,21.57
2023-08-18T21:43:46.913Z,21.56
2023-08-18T21:46:18.934Z,21.48
2023-08-18T21:48:53.725Z,21.41
2023-08-18T21:51:26.307Z,21.35
2023-08-18T21:53:58.401Z,21.33
2023-08-18T21:56:32.695Z,21.36
2023-08-18T21:59:04.833Z,21.33
2023-08-18T22:01:37.109Z,21.29
2023-08-18T22:04:10.156Z,21.25
2023-08-18T22:06:42.409Z,21.22
2023-08-18T22:09:14.359Z,21.19
2023-08-18T22:11:51.019Z,21.22
2023-08-18T22:14:24.924Z,21.21
2023-08-18T22:16:57.048Z,21.18
2023-08-18T22:19:29.221Z,21.15
2023-08-18T22:22:01.420Z,21.16
2023-08-18T22:24:33.373Z,21.15
2023-08-18T22:27:05.744Z,21.24
2023-08-18T22:29:37.853Z,21.29
2023-08-18T22:32:11.078Z,21.27
2023-08-18T22:34:43.055Z,21.25
2023-08-18T22:37:15.425Z,21.23
2023-08-18T22:39:47.384Z,21.21
2023-08-18T22:42:19.347Z,21.18
2023-08-18T22:44:51.296Z,21.14
2023-08-18T22:47:26.673Z,21.10
2023-08-18T22:49:58.607Z,21.08
2023-08-18T22:52:30.702Z,21.03
2023-08-18T22:55:02.707Z,21.00
2023-08-18T23:44:58.409Z,20.62
2023-08-18T23:47:30.888Z,20.63
2023-08-18T23:50:05.409Z,20.65
2023-08-18T23:52:37.665Z,20.70
2023-08-18T23:55:18.158Z,20.73
2023-08-18T23:57:50.210Z,20.82
